sensor_id;sensor_type;location;lat;lon;timestamp;temperature;humidity
50548;DHT22;38013;48.810;8.818;2023-02-28T00:01:27;0.30;56.20
50548;DHT22;38013;48.810;8.818;2023-02-28T00:03:54;0.30;56.30
50548;DHT22;38013;48.810;8.818;2023-02-28T00:06:22;0.20;56.30
50548;DHT22;38013;48.810;8.818;2023-02-28T00:08:50;0.20;56.30
50548;DHT22;38013;48.810;8.818;2023-02-28T00:11:17;0.20;56.30
50548;DHT22;38013;48.810;8.818;2023-02-28T00:13:44;0.20;56.50
50548;DHT22;38013;48.810;8.818;2023-02-28T00:16:13;0.10;56.40
50548;DHT22;38013;48.810;8.818;2023-02-28T00:18:42;0.10;56.50
50548;DHT22;38013;48.810;8.818;2023-02-28T00:21:09;0.00;56.40
50548;DHT22;38013;48.810;8.818;2023-02-28T00:23:36;0.00;56.50
50548;DHT22;38013;48.810;8.818;2023-02-28T00:26:03;0.00;56.50
50548;DHT22;38013;48.810;8.818;2023-02-28T00:28:30;0.00;56.50
50548;DHT22;38013;48.810;8.818;2023-02-28T00:30:58;0.00;56.50
50548;DHT22;38013;48.810;8.818;2023-02-28T00:33:26;0.00;56.60
50548;DHT22;38013;48.810;8.818;2023-02-28T00:36:01;0.00;56.60
50548;DHT22;38013;48.810;8.818;2023-02-28T00:38:31;-0.10;56.60
50548;DHT22;38013;48.810;8.818;2023-02-28T00:40:59;-0.10;56.60
50548;DHT22;38013;48.810;8.818;2023-02-28T00:43:31;0.00;56.70
50548;DHT22;38013;48.810;8.818;2023-02-28T00:45:59;-0.10;56.70
50548;DHT22;38013;48.810;8.818;2023-02-28T00:48:26;-0.10;56.70
50548;DHT22;38013;48.810;8.818;2023-02-28T00:50:54;-0.10;56.80
50548;DHT22;38013;48.810;8.818;2023-02-28T00:53:20;-0.10;56.90
50548;DHT22;38013;48.810;8.818;2023-02-28T00:55:48;-0.10;56.90
50548;DHT22;38013;48.810;8.818;2023-02-28T00:58:16;-0.20;56.90
50548;DHT22;38013;48.810;8.818;2023-02-28T01:00:42;-0.20;56.90
50548;DHT22;38013;48.810;8.818;2023-02-28T01:03:10;-0.20;56.90
50548;DHT22;38013;48.810;8.818;2023-02-28T01:05:37;-0.20;57.00
50548;DHT22;38013;48.810;8.818;2023-02-28T01:08:04;-0.30;57.00
50548;DHT22;38013;48.810;8.818;2023-02-28T01:10:31;-0.30;57.10
50548;DHT22;38013;48.810;8.818;2023-02-28T01:12:58;-0.30;57.10
50548;DHT22;38013;48.810;8.818;2023-02-28T01:15:24;-0.30;57.20
50548;DHT22;38013;48.810;8.818;2023-02-28T01:17:51;-0.30;57.30
50548;DHT22;38013;48.810;8.818;2023-02-28T01:20:18;-0.30;57.30
50548;DHT22;38013;48.810;8.818;2023-02-28T01:22:45;-0.30;57.30
50548;DHT22;38013;48.810;8.818;2023-02-28T01:25:12;-0.30;57.30
50548;DHT22;38013;48.810;8.818;2023-02-28T01:27:39;-0.30;57.30
50548;DHT22;38013;48.810;8.818;2023-02-28T01:30:09;-0.30;57.40
50548;DHT22;38013;48.810;8.818;2023-02-28T01:32:36;-0.30;57.40
50548;DHT22;38013;48.810;8.818;2023-02-28T01:35:03;-0.40;57.40
50548;DHT22;38013;48.810;8.818;2023-02-28T01:37:30;-0.40;57.40
50548;DHT22;38013;48.810;8.818;2023-02-28T01:39:57;-0.40;57.50
50548;DHT22;38013;48.810;8.818;2023-02-28T01:42:24;-0.40;57.50
50548;DHT22;38013;48.810;8.818;2023-02-28T01:44:55;-0.50;57.50
50548;DHT22;38013;48.810;8.818;2023-02-28T01:47:33;-0.40;57.70
50548;DHT22;38013;48.810;8.818;2023-02-28T01:50:02;-0.40;57.70
50548;DHT22;38013;48.810;8.818;2023-02-28T01:52:31;-0.50;57.80
50548;DHT22;38013;48.810;8.818;2023-02-28T01:54:59;-0.50;57.80
50548;DHT22;38013;48.810;8.818;2023-02-28T01:57:28;-0.50;57.90
50548;DHT22;38013;48.810;8.818;2023-02-28T02:00:13;-0.50;57.90
50548;DHT22;38013;48.810;8.818;2023-02-28T02:02:48;-0.50;58.00
50548;DHT22;38013;48.810;8.818;2023-02-28T02:05:19;-0.50;58.00
50548;DHT22;38013;48.810;8.818;2023-02-28T02:07:48;-0.60;58.00
50548;DHT22;38013;48.810;8.818;2023-02-28T02:10:19;-0.50;58.10
50548;DHT22;38013;48.810;8.818;2023-02-28T02:13:18;-0.50;58.10
50548;DHT22;38013;48.810;8.818;2023-02-28T02:15:56;-0.60;58.10
50548;DHT22;38013;48.810;8.818;2023-02-28T02:21:56;-0.60;58.20
50548;DHT22;38013;48.810;8.818;2023-02-28T02:36:13;-0.50;58.60
50548;DHT22;38013;48.810;8.818;2023-02-28T02:38:49;-0.50;58.60
50548;DHT22;38013;48.810;8.818;2023-02-28T02:41:28;-0.50;58.60
50548;DHT22;38013;48.810;8.818;2023-02-28T02:44:39;-0.50;58.60
50548;DHT22;38013;48.810;8.818;2023-02-28T02:46:59;-0.50;58.60
50548;DHT22;38013;48.810;8.818;2023-02-28T02:49:32;-0.50;58.60
50548;DHT22;38013;48.810;8.818;2023-02-28T02:52:03;-0.50;59.20
50548;DHT22;38013;48.810;8.818;2023-02-28T02:54:33;-0.50;58.50
50548;DHT22;38013;48.810;8.818;2023-02-28T02:57:06;-0.50;58.60
50548;DHT22;38013;48.810;8.818;2023-02-28T02:59:36;-0.50;58.60
50548;DHT22;38013;48.810;8.818;2023-02-28T03:02:06;-0.50;58.40
50548;DHT22;38013;48.810;8.818;2023-02-28T03:04:38;-0.50;58.50
50548;DHT22;38013;48.810;8.818;2023-02-28T03:07:09;-0.50;58.40
50548;DHT22;38013;48.810;8.818;2023-02-28T03:09:36;-0.50;58.60
50548;DHT22;38013;48.810;8.818;2023-02-28T03:12:06;-0.50;58.50
50548;DHT22;38013;48.810;8.818;2023-02-28T03:17:14;-0.50;58.60
50548;DHT22;38013;48.810;8.818;2023-02-28T03:20:07;-0.50;58.60
50548;DHT22;38013;48.810;8.818;2023-02-28T03:28:35;-0.60;58.80
50548;DHT22;38013;48.810;8.818;2023-02-28T03:31:26;-0.60;59.00
50548;DHT22;38013;48.810;8.818;2023-02-28T03:34:09;-0.50;59.00
50548;DHT22;38013;48.810;8.818;2023-02-28T03:36:39;-0.50;59.00
50548;DHT22;38013;48.810;8.818;2023-02-28T03:39:14;-0.50;59.20
50548;DHT22;38013;48.810;8.818;2023-02-28T03:41:45;-0.50;59.20
50548;DHT22;38013;48.810;8.818;2023-02-28T03:44:27;-0.50;59.20
50548;DHT22;38013;48.810;8.818;2023-02-28T03:47:21;-0.50;59.30
50548;DHT22;38013;48.810;8.818;2023-02-28T03:50:10;-0.50;59.50
50548;DHT22;38013;48.810;8.818;2023-02-28T03:52:46;-0.50;59.50
50548;DHT22;38013;48.810;8.818;2023-02-28T03:55:16;-0.40;59.80
50548;DHT22;38013;48.810;8.818;2023-02-28T03:57:45;-0.50;59.60
50548;DHT22;38013;48.810;8.818;2023-02-28T04:00:18;-0.50;59.70
50548;DHT22;38013;48.810;8.818;2023-02-28T04:02:48;-0.40;59.80
50548;DHT22;38013;48.810;8.818;2023-02-28T04:05:19;-0.40;59.90
50548;DHT22;38013;48.810;8.818;2023-02-28T04:07:46;-0.40;59.90
50548;DHT22;38013;48.810;8.818;2023-02-28T04:10:13;-0.30;59.90
50548;DHT22;38013;48.810;8.818;2023-02-28T04:12:41;-0.30;59.90
50548;DHT22;38013;48.810;8.818;2023-02-28T04:15:08;-0.30;59.80
50548;DHT22;38013;48.810;8.818;2023-02-28T04:17:35;-0.30;59.70
50548;DHT22;38013;48.810;8.818;2023-02-28T04:20:02;-0.20;59.90
50548;DHT22;38013;48.810;8.818;2023-02-28T04:22:29;-0.20;59.70
50548;DHT22;38013;48.810;8.818;2023-02-28T04:24:56;-0.20;60.50
50548;DHT22;38013;48.810;8.818;2023-02-28T04:27:23;-0.20;59.80
50548;DHT22;38013;48.810;8.818;2023-02-28T04:29:49;-0.20;59.90
50548;DHT22;38013;48.810;8.818;2023-02-28T04:32:16;-0.20;59.90
50548;DHT22;38013;48.810;8.818;2023-02-28T04:34:43;-0.20;59.90
50548;DHT22;38013;48.810;8.818;2023-02-28T04:37:10;-0.20;60.00
50548;DHT22;38013;48.810;8.818;2023-02-28T04:39:39;-0.20;60.00
50548;DHT22;38013;48.810;8.818;2023-02-28T04:42:06;-0.20;60.00
50548;DHT22;38013;48.810;8.818;2023-02-28T04:44:33;-0.10;60.00
50548;DHT22;38013;48.810;8.818;2023-02-28T04:47:00;-0.20;60.00
50548;DHT22;38013;48.810;8.818;2023-02-28T04:49:27;-0.10;60.10
50548;DHT22;38013;48.810;8.818;2023-02-28T04:51:53;-0.10;60.20
50548;DHT22;38013;48.810;8.818;2023-02-28T04:54:20;-0.10;60.20
50548;DHT22;38013;48.810;8.818;2023-02-28T04:56:47;-0.10;60.20
50548;DHT22;38013;48.810;8.818;2023-02-28T04:59:16;0.00;60.20
50548;DHT22;38013;48.810;8.818;2023-02-28T05:01:45;-0.10;60.20
50548;DHT22;38013;48.810;8.818;2023-02-28T05:04:13;0.00;60.50
50548;DHT22;38013;48.810;8.818;2023-02-28T05:06:40;0.00;60.30
50548;DHT22;38013;48.810;8.818;2023-02-28T05:09:07;0.00;60.30
50548;DHT22;38013;48.810;8.818;2023-02-28T05:11:34;0.00;60.50
50548;DHT22;38013;48.810;8.818;2023-02-28T05:14:02;0.00;60.70
50548;DHT22;38013;48.810;8.818;2023-02-28T05:16:30;0.10;60.80
50548;DHT22;38013;48.810;8.818;2023-02-28T05:18:57;0.10;60.90
50548;DHT22;38013;48.810;8.818;2023-02-28T05:21:32;0.20;61.00
50548;DHT22;38013;48.810;8.818;2023-02-28T05:24:01;0.20;61.10
50548;DHT22;38013;48.810;8.818;2023-02-28T05:26:49;0.30;61.20
50548;DHT22;38013;48.810;8.818;2023-02-28T05:29:18;0.30;61.20
50548;DHT22;38013;48.810;8.818;2023-02-28T05:31:45;0.40;61.30
50548;DHT22;38013;48.810;8.818;2023-02-28T05:34:12;0.40;61.30
50548;DHT22;38013;48.810;8.818;2023-02-28T05:36:39;0.40;61.30
50548;DHT22;38013;48.810;8.818;2023-02-28T05:39:06;0.50;61.20
50548;DHT22;38013;48.810;8.818;2023-02-28T05:41:33;0.50;61.10
50548;DHT22;38013;48.810;8.818;2023-02-28T05:44:00;0.60;61.10
50548;DHT22;38013;48.810;8.818;2023-02-28T05:46:27;0.60;60.80
50548;DHT22;38013;48.810;8.818;2023-02-28T05:48:54;0.60;61.00
50548;DHT22;38013;48.810;8.818;2023-02-28T05:51:22;0.70;61.00
50548;DHT22;38013;48.810;8.818;2023-02-28T05:53:48;0.70;60.90
50548;DHT22;38013;48.810;8.818;2023-02-28T05:56:15;0.70;60.80
50548;DHT22;38013;48.810;8.818;2023-02-28T05:58:42;0.70;60.90
50548;DHT22;38013;48.810;8.818;2023-02-28T06:03:59;0.80;60.80
50548;DHT22;38013;48.810;8.818;2023-02-28T06:06:27;0.80;60.90
50548;DHT22;38013;48.810;8.818;2023-02-28T06:08:54;0.80;60.70
50548;DHT22;38013;48.810;8.818;2023-02-28T06:11:21;0.80;60.90
50548;DHT22;38013;48.810;8.818;2023-02-28T06:13:47;0.80;60.80
50548;DHT22;38013;48.810;8.818;2023-02-28T06:16:15;0.80;60.50
50548;DHT22;38013;48.810;8.818;2023-02-28T06:18:42;0.80;60.50
50548;DHT22;38013;48.810;8.818;2023-02-28T06:21:08;0.80;60.40
50548;DHT22;38013;48.810;8.818;2023-02-28T06:23:35;0.80;60.40
50548;DHT22;38013;48.810;8.818;2023-02-28T06:26:02;0.70;60.50
50548;DHT22;38013;48.810;8.818;2023-02-28T06:28:29;0.70;60.50
50548;DHT22;38013;48.810;8.818;2023-02-28T06:30:56;0.70;60.50
50548;DHT22;38013;48.810;8.818;2023-02-28T06:33:22;0.70;60.50
50548;DHT22;38013;48.810;8.818;2023-02-28T06:35:50;0.70;60.70
50548;DHT22;38013;48.810;8.818;2023-02-28T06:38:18;0.70;60.70
50548;DHT22;38013;48.810;8.818;2023-02-28T06:40:48;0.70;60.70
50548;DHT22;38013;48.810;8.818;2023-02-28T06:43:19;0.60;60.90
50548;DHT22;38013;48.810;8.818;2023-02-28T06:45:46;0.60;60.90
50548;DHT22;38013;48.810;8.818;2023-02-28T06:48:13;0.60;61.00
50548;DHT22;38013;48.810;8.818;2023-02-28T06:50:40;0.50;61.00
50548;DHT22;38013;48.810;8.818;2023-02-28T06:53:07;0.60;61.10
50548;DHT22;38013;48.810;8.818;2023-02-28T06:55:34;0.60;61.30
50548;DHT22;38013;48.810;8.818;2023-02-28T06:58:01;0.50;61.00
50548;DHT22;38013;48.810;8.818;2023-02-28T07:00:28;0.50;61.00
50548;DHT22;38013;48.810;8.818;2023-02-28T07:02:55;0.50;61.00
50548;DHT22;38013;48.810;8.818;2023-02-28T07:05:22;0.50;61.20
50548;DHT22;38013;48.810;8.818;2023-02-28T07:07:48;0.60;61.50
50548;DHT22;38013;48.810;8.818;2023-02-28T07:10:15;0.50;61.10
50548;DHT22;38013;48.810;8.818;2023-02-28T07:12:45;0.50;61.30
50548;DHT22;38013;48.810;8.818;2023-02-28T07:15:12;0.50;61.20
50548;DHT22;38013;48.810;8.818;2023-02-28T07:17:39;0.50;61.40
50548;DHT22;38013;48.810;8.818;2023-02-28T07:20:06;0.50;61.30
50548;DHT22;38013;48.810;8.818;2023-02-28T07:22:33;0.50;61.50
50548;DHT22;38013;48.810;8.818;2023-02-28T07:25:00;0.50;61.50
50548;DHT22;38013;48.810;8.818;2023-02-28T07:27:27;0.60;61.50
50548;DHT22;38013;48.810;8.818;2023-02-28T07:29:53;0.60;61.50
50548;DHT22;38013;48.810;8.818;2023-02-28T07:32:21;0.60;61.60
50548;DHT22;38013;48.810;8.818;2023-02-28T07:34:48;0.60;61.90
50548;DHT22;38013;48.810;8.818;2023-02-28T07:37:15;0.70;61.60
50548;DHT22;38013;48.810;8.818;2023-02-28T07:39:42;0.70;61.50
50548;DHT22;38013;48.810;8.818;2023-02-28T07:42:09;0.70;61.60
50548;DHT22;38013;48.810;8.818;2023-02-28T07:44:38;0.80;61.70
50548;DHT22;38013;48.810;8.818;2023-02-28T07:47:07;0.80;61.70
50548;DHT22;38013;48.810;8.818;2023-02-28T07:49:37;0.80;61.70
50548;DHT22;38013;48.810;8.818;2023-02-28T07:52:07;0.80;61.70
50548;DHT22;38013;48.810;8.818;2023-02-28T07:54:33;0.90;61.70
50548;DHT22;38013;48.810;8.818;2023-02-28T07:57:00;0.90;61.60
50548;DHT22;38013;48.810;8.818;2023-02-28T07:59:27;0.90;61.60
50548;DHT22;38013;48.810;8.818;2023-02-28T08:01:57;0.90;61.50
50548;DHT22;38013;48.810;8.818;2023-02-28T08:04:25;1.00;61.60
50548;DHT22;38013;48.810;8.818;2023-02-28T08:06:52;1.00;61.60
50548;DHT22;38013;48.810;8.818;2023-02-28T08:09:19;1.00;61.50
50548;DHT22;38013;48.810;8.818;2023-02-28T08:11:46;1.00;61.50
50548;DHT22;38013;48.810;8.818;2023-02-28T08:14:13;1.00;61.40
50548;DHT22;38013;48.810;8.818;2023-02-28T08:16:40;1.00;61.40
50548;DHT22;38013;48.810;8.818;2023-02-28T08:19:06;1.10;61.50
50548;DHT22;38013;48.810;8.818;2023-02-28T08:21:33;1.00;62.10
50548;DHT22;38013;48.810;8.818;2023-02-28T08:24:00;1.00;62.00
50548;DHT22;38013;48.810;8.818;2023-02-28T08:26:27;1.10;61.40
50548;DHT22;38013;48.810;8.818;2023-02-28T08:28:53;1.10;61.50
50548;DHT22;38013;48.810;8.818;2023-02-28T08:31:22;1.10;61.50
50548;DHT22;38013;48.810;8.818;2023-02-28T08:33:49;1.20;61.50
50548;DHT22;38013;48.810;8.818;2023-02-28T08:36:18;1.20;61.40
50548;DHT22;38013;48.810;8.818;2023-02-28T08:38:45;1.20;61.40
50548;DHT22;38013;48.810;8.818;2023-02-28T08:41:12;1.20;61.50
50548;DHT22;38013;48.810;8.818;2023-02-28T08:43:39;1.20;61.40
50548;DHT22;38013;48.810;8.818;2023-02-28T08:46:07;1.20;61.40
50548;DHT22;38013;48.810;8.818;2023-02-28T08:48:35;1.30;61.50
50548;DHT22;38013;48.810;8.818;2023-02-28T08:51:05;1.30;61.50
50548;DHT22;38013;48.810;8.818;2023-02-28T08:53:34;1.30;61.50
50548;DHT22;38013;48.810;8.818;2023-02-28T08:56:09;1.30;61.50
50548;DHT22;38013;48.810;8.818;2023-02-28T08:58:37;1.30;61.40
50548;DHT22;38013;48.810;8.818;2023-02-28T09:01:23;1.30;61.40
50548;DHT22;38013;48.810;8.818;2023-02-28T09:03:54;1.30;61.40
50548;DHT22;38013;48.810;8.818;2023-02-28T09:06:26;1.40;61.50
50548;DHT22;38013;48.810;8.818;2023-02-28T09:08:57;1.40;61.40
50548;DHT22;38013;48.810;8.818;2023-02-28T09:11:27;1.40;61.40
50548;DHT22;38013;48.810;8.818;2023-02-28T09:13:54;1.40;61.30
50548;DHT22;38013;48.810;8.818;2023-02-28T09:16:25;1.40;61.30
50548;DHT22;38013;48.810;8.818;2023-02-28T09:18:52;1.40;61.40
50548;DHT22;38013;48.810;8.818;2023-02-28T09:21:19;1.40;61.40
50548;DHT22;38013;48.810;8.818;2023-02-28T09:23:46;1.50;61.40
50548;DHT22;38013;48.810;8.818;2023-02-28T09:26:15;1.50;61.50
50548;DHT22;38013;48.810;8.818;2023-02-28T09:28:43;1.50;61.50
50548;DHT22;38013;48.810;8.818;2023-02-28T09:31:11;1.50;61.50
50548;DHT22;38013;48.810;8.818;2023-02-28T09:33:43;1.60;61.50
50548;DHT22;38013;48.810;8.818;2023-02-28T09:36:09;1.60;61.50
50548;DHT22;38013;48.810;8.818;2023-02-28T09:38:36;1.60;61.40
50548;DHT22;38013;48.810;8.818;2023-02-28T09:41:11;1.70;61.40
50548;DHT22;38013;48.810;8.818;2023-02-28T09:43:41;1.70;61.40
50548;DHT22;38013;48.810;8.818;2023-02-28T09:46:25;1.70;61.40
50548;DHT22;38013;48.810;8.818;2023-02-28T09:48:53;1.80;61.50
50548;DHT22;38013;48.810;8.818;2023-02-28T09:54:09;1.80;61.40
50548;DHT22;38013;48.810;8.818;2023-02-28T09:56:48;1.90;61.50
50548;DHT22;38013;48.810;8.818;2023-02-28T09:59:30;1.90;61.50
50548;DHT22;38013;48.810;8.818;2023-02-28T10:05:22;2.10;61.50
50548;DHT22;38013;48.810;8.818;2023-02-28T10:10:42;2.10;61.30
50548;DHT22;38013;48.810;8.818;2023-02-28T10:16:02;2.20;61.40
50548;DHT22;38013;48.810;8.818;2023-02-28T10:18:37;2.30;61.30
50548;DHT22;38013;48.810;8.818;2023-02-28T10:21:14;2.40;61.40
50548;DHT22;38013;48.810;8.818;2023-02-28T10:23:44;2.40;61.30
50548;DHT22;38013;48.810;8.818;2023-02-28T10:26:14;2.40;61.10
50548;DHT22;38013;48.810;8.818;2023-02-28T10:28:42;2.50;61.30
50548;DHT22;38013;48.810;8.818;2023-02-28T10:31:11;2.50;61.20
50548;DHT22;38013;48.810;8.818;2023-02-28T10:33:43;2.60;61.20
50548;DHT22;38013;48.810;8.818;2023-02-28T10:36:12;2.60;61.10
50548;DHT22;38013;48.810;8.818;2023-02-28T10:38:41;2.60;61.10
50548;DHT22;38013;48.810;8.818;2023-02-28T10:41:09;2.70;60.90
50548;DHT22;38013;48.810;8.818;2023-02-28T10:43:38;2.70;60.90
50548;DHT22;38013;48.810;8.818;2023-02-28T10:48:40;2.80;61.00
50548;DHT22;38013;48.810;8.818;2023-02-28T10:51:12;2.80;61.50
50548;DHT22;38013;48.810;8.818;2023-02-28T10:56:26;3.00;61.00
50548;DHT22;38013;48.810;8.818;2023-02-28T11:01:41;3.10;60.80
50548;DHT22;38013;48.810;8.818;2023-02-28T11:04:16;3.20;60.80
50548;DHT22;38013;48.810;8.818;2023-02-28T11:07:27;3.20;60.70
50548;DHT22;38013;48.810;8.818;2023-02-28T11:10:17;3.30;60.50
50548;DHT22;38013;48.810;8.818;2023-02-28T11:12:46;3.40;60.30
50548;DHT22;38013;48.810;8.818;2023-02-28T11:15:32;3.40;60.50
50548;DHT22;38013;48.810;8.818;2023-02-28T11:18:01;3.50;60.30
50548;DHT22;38013;48.810;8.818;2023-02-28T11:20:48;3.60;60.20
50548;DHT22;38013;48.810;8.818;2023-02-28T11:23:16;3.60;60.10
50548;DHT22;38013;48.810;8.818;2023-02-28T11:25:47;3.70;60.30
50548;DHT22;38013;48.810;8.818;2023-02-28T11:33:37;3.80;59.90
50548;DHT22;38013;48.810;8.818;2023-02-28T11:36:13;3.90;60.10
50548;DHT22;38013;48.810;8.818;2023-02-28T11:38:41;4.00;60.40
50548;DHT22;38013;48.810;8.818;2023-02-28T11:41:19;4.20;60.60
50548;DHT22;38013;48.810;8.818;2023-02-28T12:00:08;5.40;59.60
50548;DHT22;38013;48.810;8.818;2023-02-28T12:05:47;5.50;59.40
50548;DHT22;38013;48.810;8.818;2023-02-28T12:20:05;6.20;59.20
50548;DHT22;38013;48.810;8.818;2023-02-28T12:23:15;6.40;58.10
50548;DHT22;38013;48.810;8.818;2023-02-28T12:25:48;6.60;57.60
50548;DHT22;38013;48.810;8.818;2023-02-28T12:28:21;6.80;58.60
50548;DHT22;38013;48.810;8.818;2023-02-28T12:33:27;7.20;58.60
50548;DHT22;38013;48.810;8.818;2023-02-28T12:35:59;7.40;57.50
50548;DHT22;38013;48.810;8.818;2023-02-28T12:38:29;7.60;58.30
50548;DHT22;38013;48.810;8.818;2023-02-28T12:41:05;7.80;58.30
50548;DHT22;38013;48.810;8.818;2023-02-28T12:43:46;8.00;57.50
50548;DHT22;38013;48.810;8.818;2023-02-28T12:46:25;8.10;57.20
50548;DHT22;38013;48.810;8.818;2023-02-28T12:49:10;8.20;57.40
50548;DHT22;38013;48.810;8.818;2023-02-28T12:51:52;8.40;57.10
50548;DHT22;38013;48.810;8.818;2023-02-28T12:54:21;8.50;57.30
50548;DHT22;38013;48.810;8.818;2023-02-28T12:59:38;8.80;57.50
50548;DHT22;38013;48.810;8.818;2023-02-28T13:02:24;8.90;57.40
50548;DHT22;38013;48.810;8.818;2023-02-28T13:10:48;9.50;57.60
50548;DHT22;38013;48.810;8.818;2023-02-28T13:13:21;9.80;58.20
50548;DHT22;38013;48.810;8.818;2023-02-28T13:18:31;10.30;57.90
50548;DHT22;38013;48.810;8.818;2023-02-28T13:20:59;10.60;57.20
50548;DHT22;38013;48.810;8.818;2023-02-28T13:23:37;10.80;57.40
50548;DHT22;38013;48.810;8.818;2023-02-28T13:26:12;10.90;57.20
50548;DHT22;38013;48.810;8.818;2023-02-28T13:31:15;11.20;56.70
50548;DHT22;38013;48.810;8.818;2023-02-28T13:36:31;11.60;57.80
50548;DHT22;38013;48.810;8.818;2023-02-28T13:38:59;11.80;56.10
50548;DHT22;38013;48.810;8.818;2023-02-28T13:44:03;12.10;54.50
50548;DHT22;38013;48.810;8.818;2023-02-28T13:51:49;12.10;53.50
50548;DHT22;38013;48.810;8.818;2023-02-28T14:01:55;11.80;54.20
50548;DHT22;38013;48.810;8.818;2023-02-28T14:07:04;12.20;55.60
50548;DHT22;38013;48.810;8.818;2023-02-28T14:09:33;12.40;55.60
50548;DHT22;38013;48.810;8.818;2023-02-28T14:15:26;13.00;55.60
50548;DHT22;38013;48.810;8.818;2023-02-28T14:18:03;13.40;55.20
50548;DHT22;38013;48.810;8.818;2023-02-28T14:20:33;13.60;54.60
50548;DHT22;38013;48.810;8.818;2023-02-28T14:25:37;13.90;54.00
50548;DHT22;38013;48.810;8.818;2023-02-28T14:28:18;14.00;52.90
50548;DHT22;38013;48.810;8.818;2023-02-28T14:36:33;14.00;50.90
50548;DHT22;38013;48.810;8.818;2023-02-28T14:39:22;13.70;51.00
50548;DHT22;38013;48.810;8.818;2023-02-28T14:41:49;13.40;49.20
50548;DHT22;38013;48.810;8.818;2023-02-28T14:46:43;12.70;50.60
50548;DHT22;38013;48.810;8.818;2023-02-28T14:49:29;12.40;49.80
50548;DHT22;38013;48.810;8.818;2023-02-28T14:52:42;12.10;50.80
50548;DHT22;38013;48.810;8.818;2023-02-28T14:54:56;11.70;50.20
50548;DHT22;38013;48.810;8.818;2023-02-28T14:57:26;11.30;50.60
50548;DHT22;38013;48.810;8.818;2023-02-28T14:59:58;11.00;51.30
50548;DHT22;38013;48.810;8.818;2023-02-28T15:02:26;10.80;51.40
50548;DHT22;38013;48.810;8.818;2023-02-28T15:04:56;10.60;52.10
50548;DHT22;38013;48.810;8.818;2023-02-28T15:07:25;10.60;53.20
50548;DHT22;38013;48.810;8.818;2023-02-28T15:10:13;10.80;53.80
50548;DHT22;38013;48.810;8.818;2023-02-28T15:12:51;10.90;53.30
50548;DHT22;38013;48.810;8.818;2023-02-28T15:15:19;11.10;54.80
50548;DHT22;38013;48.810;8.818;2023-02-28T15:18:01;11.30;55.00
50548;DHT22;38013;48.810;8.818;2023-02-28T15:20:29;11.60;55.30
50548;DHT22;38013;48.810;8.818;2023-02-28T15:22:55;11.80;54.90
50548;DHT22;38013;48.810;8.818;2023-02-28T15:25:23;12.00;54.90
50548;DHT22;38013;48.810;8.818;2023-02-28T15:27:51;12.30;55.10
50548;DHT22;38013;48.810;8.818;2023-02-28T15:30:21;12.60;55.70
50548;DHT22;38013;48.810;8.818;2023-02-28T15:35:38;13.30;55.60
50548;DHT22;38013;48.810;8.818;2023-02-28T15:38:16;13.60;55.20
50548;DHT22;38013;48.810;8.818;2023-02-28T15:40:46;13.70;54.20
50548;DHT22;38013;48.810;8.818;2023-02-28T15:45:59;13.90;53.60
50548;DHT22;38013;48.810;8.818;2023-02-28T15:49:12;14.00;53.60
50548;DHT22;38013;48.810;8.818;2023-02-28T15:51:23;14.20;54.40
50548;DHT22;38013;48.810;8.818;2023-02-28T15:56:25;14.60;54.30
50548;DHT22;38013;48.810;8.818;2023-02-28T15:58:54;14.70;53.90
50548;DHT22;38013;48.810;8.818;2023-02-28T16:01:26;14.80;53.10
50548;DHT22;38013;48.810;8.818;2023-02-28T16:03:56;14.80;52.50
50548;DHT22;38013;48.810;8.818;2023-02-28T16:08:51;14.60;51.30
50548;DHT22;38013;48.810;8.818;2023-02-28T16:11:20;14.40;51.00
50548;DHT22;38013;48.810;8.818;2023-02-28T16:13:47;14.40;51.60
50548;DHT22;38013;48.810;8.818;2023-02-28T16:16:16;14.30;50.70
50548;DHT22;38013;48.810;8.818;2023-02-28T16:18:43;14.10;51.10
50548;DHT22;38013;48.810;8.818;2023-02-28T16:21:10;14.00;51.00
50548;DHT22;38013;48.810;8.818;2023-02-28T16:23:37;13.90;50.60
50548;DHT22;38013;48.810;8.818;2023-02-28T16:26:04;13.80;51.70
50548;DHT22;38013;48.810;8.818;2023-02-28T16:28:32;13.80;50.80
50548;DHT22;38013;48.810;8.818;2023-02-28T16:31:02;13.60;51.30
50548;DHT22;38013;48.810;8.818;2023-02-28T16:33:31;13.60;50.80
50548;DHT22;38013;48.810;8.818;2023-02-28T16:35:57;13.50;50.90
50548;DHT22;38013;48.810;8.818;2023-02-28T16:38:24;13.40;50.90
50548;DHT22;38013;48.810;8.818;2023-02-28T16:40:51;13.40;50.70
50548;DHT22;38013;48.810;8.818;2023-02-28T16:43:22;13.30;50.40
50548;DHT22;38013;48.810;8.818;2023-02-28T16:45:54;13.20;50.30
50548;DHT22;38013;48.810;8.818;2023-02-28T16:48:25;13.10;50.20
50548;DHT22;38013;48.810;8.818;2023-02-28T16:50:51;12.90;49.80
50548;DHT22;38013;48.810;8.818;2023-02-28T16:53:18;12.80;50.00
50548;DHT22;38013;48.810;8.818;2023-02-28T16:55:45;12.50;49.70
50548;DHT22;38013;48.810;8.818;2023-02-28T16:58:15;12.30;49.20
50548;DHT22;38013;48.810;8.818;2023-02-28T17:00:42;12.00;48.90
50548;DHT22;38013;48.810;8.818;2023-02-28T17:03:20;11.70;48.80
50548;DHT22;38013;48.810;8.818;2023-02-28T17:05:58;11.40;48.70
50548;DHT22;38013;48.810;8.818;2023-02-28T17:08:25;11.00;48.70
50548;DHT22;38013;48.810;8.818;2023-02-28T17:10:55;10.60;48.70
50548;DHT22;38013;48.810;8.818;2023-02-28T17:13:21;10.30;48.80
50548;DHT22;38013;48.810;8.818;2023-02-28T17:15:48;10.00;48.90
50548;DHT22;38013;48.810;8.818;2023-02-28T17:18:16;9.70;48.90
50548;DHT22;38013;48.810;8.818;2023-02-28T17:20:50;9.40;49.00
50548;DHT22;38013;48.810;8.818;2023-02-28T17:23:17;9.10;49.10
50548;DHT22;38013;48.810;8.818;2023-02-28T17:25:44;8.80;49.30
50548;DHT22;38013;48.810;8.818;2023-02-28T17:28:23;8.50;49.40
50548;DHT22;38013;48.810;8.818;2023-02-28T17:30:50;8.30;49.70
50548;DHT22;38013;48.810;8.818;2023-02-28T17:33:17;8.00;49.70
50548;DHT22;38013;48.810;8.818;2023-02-28T17:35:44;7.80;49.90
50548;DHT22;38013;48.810;8.818;2023-02-28T17:38:15;7.60;50.10
50548;DHT22;38013;48.810;8.818;2023-02-28T17:40:43;7.40;50.30
50548;DHT22;38013;48.810;8.818;2023-02-28T17:43:10;7.20;50.40
50548;DHT22;38013;48.810;8.818;2023-02-28T17:45:37;7.00;50.50
50548;DHT22;38013;48.810;8.818;2023-02-28T17:48:04;6.80;50.70
50548;DHT22;38013;48.810;8.818;2023-02-28T17:50:31;6.70;51.00
50548;DHT22;38013;48.810;8.818;2023-02-28T17:52:59;6.50;51.10
50548;DHT22;38013;48.810;8.818;2023-02-28T17:55:26;6.30;51.20
50548;DHT22;38013;48.810;8.818;2023-02-28T17:57:52;6.20;51.40
50548;DHT22;38013;48.810;8.818;2023-02-28T18:00:20;6.00;51.50
50548;DHT22;38013;48.810;8.818;2023-02-28T18:02:50;5.80;51.60
50548;DHT22;38013;48.810;8.818;2023-02-28T18:05:17;5.70;51.70
50548;DHT22;38013;48.810;8.818;2023-02-28T18:07:44;5.60;51.90
50548;DHT22;38013;48.810;8.818;2023-02-28T18:10:17;5.40;52.00
50548;DHT22;38013;48.810;8.818;2023-02-28T18:12:49;5.30;52.10
50548;DHT22;38013;48.810;8.818;2023-02-28T18:15:18;5.10;52.20
50548;DHT22;38013;48.810;8.818;2023-02-28T18:17:48;5.00;52.30
50548;DHT22;38013;48.810;8.818;2023-02-28T18:20:16;4.90;52.40
50548;DHT22;38013;48.810;8.818;2023-02-28T18:22:43;4.80;53.20
50548;DHT22;38013;48.810;8.818;2023-02-28T18:25:11;4.80;52.60